| time (UTC) | temp C | wind direction | speed KPH | gust KPH | rain 1hr cm | rain 24hr cm | rain mn cm | humidity % | barometer mb |
| 20260508101505 | 5 | 360 | 11.3 | 17.7 | 0.00 | 0.00 | 0.00 | 78 | 1025.4 |
| 20260508100003 | 6 | 360 | 11.3 | 16.1 | 0.00 | 0.00 | 0.00 | 75 | 1025.3 |
| 20260508094503 | 6 | 360 | 12.9 | 16.1 | 0.00 | 0.00 | 0.00 | 77 | 1025.3 |
| 20260508093001 | 5 | 360 | 11.3 | 17.7 | 0.00 | 0.00 | 0.00 | 80 | 1025.2 |
| 20260508091605 | 5 | 360 | 9.7 | 12.9 | 0.00 | 0.00 | 0.00 | 81 | 1025.1 |
| 20260508090105 | 5 | 360 | 9.7 | 14.5 | 0.00 | 0.00 | 0.00 | 80 | 1025.0 |
| 20260508084612 | 5 | 360 | 11.3 | 14.5 | 0.00 | 0.00 | 0.00 | 82 | 1025.0 |
| 20260508083030 | 5 | 360 | 9.7 | 14.5 | 0.00 | 0.00 | 0.00 | 84 | 1024.9 |
| 20260508081501 | 5 | 360 | 9.7 | 14.5 | 0.00 | 0.00 | 0.00 | 85 | 1024.8 |
| 20260508080010 | 5 | 360 | 12.9 | 17.7 | 0.00 | 0.00 | 0.00 | 86 | 1024.7 |
| 20260508074610 | 5 | 360 | 12.9 | 17.7 | 0.00 | 0.00 | 0.00 | 86 | 1024.6 |
| 20260508073012 | 4 | 360 | 16.1 | 20.9 | 0.00 | 0.00 | 0.00 | 86 | 1024.5 |
| 20260508071501 | 5 | 360 | 12.9 | 17.7 | 0.00 | 0.00 | 0.00 | 86 | 1024.3 |
| 20260508070105 | 5 | 360 | 8.0 | 11.3 | 0.00 | 0.00 | 0.00 | 85 | 1023.9 |
| 20260508064611 | 5 | 360 | 6.4 | 11.3 | 0.00 | 0.00 | 0.00 | 86 | 1023.8 |
| 20260508063101 | 5 | 360 | 6.4 | 9.7 | 0.00 | 0.00 | 0.00 | 86 | 1023.6 |
| 20260508061603 | 5 | 215 | 4.8 | 11.3 | 0.00 | 0.00 | 0.00 | 87 | 1023.4 |
| 20260508060120 | 4 | 223 | 11.3 | 12.9 | 0.00 | 0.00 | 0.00 | 88 | 1023.2 |
| 20260508054511 | 5 | 360 | 8.0 | 12.9 | 0.00 | 0.00 | 0.00 | 86 | 1023.0 |
| 20260508053110 | 5 | 360 | 3.2 | 8.0 | 0.00 | 0.00 | 0.00 | 87 | 1022.9 |
| 20260508051510 | 4 | 360 | 8.0 | 9.7 | 0.00 | 0.00 | 0.00 | 86 | 1022.7 |
| 20260508050111 | 5 | 360 | 3.2 | 6.4 | 0.00 | 0.00 | 0.00 | 86 | 1022.5 |
| 20260508044502 | 4 | 360 | 3.2 | 8.0 | 0.00 | 0.00 | 0.00 | 86 | 1022.4 |
| 20260508043102 | 4 | 360 | 1.6 | 8.0 | 0.00 | 0.00 | 0.00 | 88 | 1022.1 |
| 20260508041605 | 4 | 262 | 3.2 | 6.4 | 0.00 | 0.00 | 0.00 | 88 | 1022.1 |
| 20260508040010 | 3 | 360 | 3.2 | 8.0 | 0.00 | 0.00 | 0.00 | 88 | 1021.8 |
| 20260508034510 | 3 | 360 | 4.8 | 12.9 | 0.00 | 0.00 | 0.00 | 89 | 1021.6 |
| 20260508033001 | 3 | 360 | 3.2 | 9.7 | 0.00 | 0.00 | 0.00 | 89 | 1021.6 |
| 20260508031609 | 3 | 360 | 6.4 | 11.3 | 0.00 | 0.00 | 0.00 | 88 | 1021.3 |
| 20260508030131 | 3 | 282 | 8.0 | 11.3 | 0.00 | 0.00 | 0.00 | 89 | 1021.2 |
| 20260508024606 | 3 | 360 | 6.4 | 12.9 | 0.00 | 0.00 | 0.00 | 89 | 1021.0 |
| 20260508023102 | 3 | 360 | 8.0 | 12.9 | 0.00 | 0.00 | 0.00 | 88 | 1020.9 |
| 20260508021512 | 3 | 360 | 6.4 | 11.3 | 0.00 | 0.00 | 0.00 | 88 | 1020.8 |
| 20260508020110 | 3 | 360 | 8.0 | 14.5 | 0.00 | 0.00 | 0.00 | 88 | 1020.7 |
| 20260508014601 | 3 | 360 | 8.0 | 12.9 | 0.00 | 0.00 | 0.00 | 88 | 1020.6 |
| 20260508013003 | 3 | 360 | 6.4 | 14.5 | 0.00 | 0.00 | 0.00 | 88 | 1020.5 |
| 20260508011501 | 3 | 360 | 8.0 | 12.9 | 0.00 | 0.00 | 0.00 | 88 | 1020.3 |
| 20260508010003 | 3 | 360 | 4.8 | 11.3 | 0.00 | 0.00 | 0.00 | 87 | 1020.2 |
| 20260508004540 | 3 | 360 | 4.8 | 9.7 | 0.00 | 0.00 | 0.00 | 88 | 1020.0 |
| 20260508003002 | 3 | 360 | 6.4 | 11.3 | 0.00 | 0.00 | 0.00 | 88 | 1019.9 |
| 20260508001601 | 3 | 360 | 6.4 | 12.9 | 0.00 | 0.00 | 0.00 | 88 | 1019.8 |
| 20260508000002 | 4 | 360 | 8.0 | 14.5 | 0.00 | 0.00 | 0.00 | 88 | 1019.6 |
| 20260507234611 | 4 | 249 | 8.0 | 14.5 | 0.00 | 0.00 | 0.00 | 87 | 1019.6 |
| 20260507233001 | 4 | 360 | 9.7 | 16.1 | 0.00 | 0.00 | 0.00 | 90 | 1019.3 |
| 20260507231617 | 3 | 236 | 9.7 | 16.1 | 0.00 | 0.00 | 0.00 | 92 | 1019.2 |
| 20260507230003 | 3 | 360 | 8.0 | 14.5 | 0.00 | 0.00 | 0.00 | 92 | 1019.1 |
| 20260507224504 | 3 | 360 | 14.5 | 17.7 | 0.00 | 0.00 | 0.00 | 92 | 1019.0 |
| 20260507223001 | 3 | 360 | 9.7 | 17.7 | 0.00 | 0.00 | 0.00 | 91 | 1018.9 |
| 20260507221601 | 3 | 360 | 11.3 | 16.1 | 0.00 | 0.00 | 0.00 | 92 | 1018.8 |
| 20260507220011 | 4 | 360 | 8.0 | 12.9 | 0.00 | 0.00 | 0.00 | 90 | 1018.7 |
| 20260507214502 | 4 | 360 | 9.7 | 14.5 | 0.00 | 0.00 | 0.00 | 90 | 1018.6 |
| 20260507213013 | 4 | 360 | 11.3 | 16.1 | 0.00 | 0.00 | 0.00 | 90 | 1018.5 |
| 20260507211601 | 3 | 360 | 11.3 | 17.7 | 0.00 | 0.00 | 0.00 | 90 | 1018.4 |
| 20260507210011 | 3 | 360 | 9.7 | 12.9 | 0.00 | 0.00 | 0.00 | 92 | 1018.2 |
| 20260507204510 | 3 | 360 | 4.8 | 8.0 | 0.00 | 0.00 | 0.00 | 89 | 1018.0 |
| 20260507203101 | 3 | 360 | 4.8 | 9.7 | 0.00 | 0.00 | 0.00 | 89 | 1017.8 |
| 20260507201502 | 3 | 360 | 9.7 | 12.9 | 0.00 | 0.00 | 0.00 | 89 | 1017.6 |
| 20260507194602 | 3 | 360 | 6.4 | 11.3 | 0.00 | 0.00 | 0.00 | 90 | 1017.4 |
| 20260507193111 | 3 | 360 | 6.4 | 12.9 | 0.00 | 0.00 | 0.00 | 91 | 1017.4 |
| 20260507191512 | 3 | 360 | 8.0 | 19.3 | 0.00 | 0.00 | 0.00 | 91 | 1017.3 |
| 20260507190105 | 3 | 360 | 12.9 | 17.7 | 0.00 | 0.00 | 0.00 | 91 | 1017.2 |
| 20260507184502 | 3 | 360 | 14.5 | 19.3 | 0.00 | 0.00 | 0.00 | 91 | 1017.0 |
| 20260507183017 | 3 | 360 | 12.9 | 22.5 | 0.00 | 0.00 | 0.00 | 90 | 1017.0 |
| 20260507181501 | 3 | 360 | 12.9 | 22.5 | 0.00 | 0.00 | 0.00 | 88 | 1016.9 |
| 20260507180001 | 3 | 360 | 14.5 | 20.9 | 0.00 | 0.00 | 0.00 | 85 | 1016.8 |
| 20260507174601 | 3 | 360 | 8.0 | 17.7 | 0.00 | 0.00 | 0.00 | 86 | 1016.7 |
| 20260507173001 | 3 | 360 | 12.9 | 22.5 | 0.00 | 0.00 | 0.00 | 84 | 1016.4 |
| 20260507171511 | 4 | 360 | 14.5 | 25.7 | 0.00 | 0.00 | 0.00 | 80 | 1016.4 |
| 20260507170015 | 5 | 360 | 16.1 | 24.1 | 0.00 | 0.00 | 0.00 | 80 | 1016.3 |
| 20260507164603 | 5 | 360 | 8.0 | 17.7 | 0.00 | 0.00 | 0.00 | 78 | 1016.1 |
| 20260507163003 | 6 | 360 | 9.7 | 16.1 | 0.00 | 0.00 | 0.00 | 74 | 1015.8 |
| 20260507161502 | 6 | 360 | 9.7 | 16.1 | 0.00 | 0.00 | 0.00 | 73 | 1015.7 |
| 20260507160014 | 6 | 360 | 6.4 | 12.9 | 0.00 | 0.00 | 0.00 | 75 | 1015.6 |
| 20260507154502 | 6 | 360 | 3.2 | 11.3 | 0.00 | 0.00 | 0.00 | 76 | 1015.5 |
| 20260507153002 | 7 | 360 | 1.6 | 9.7 | 0.00 | 0.00 | 0.00 | 75 | 1015.3 |
| 20260507151513 | 6 | 360 | 3.2 | 11.3 | 0.00 | 0.00 | 0.00 | 78 | 1015.2 |
| 20260507150002 | 5 | 338 | 8.0 | 16.1 | 0.00 | 0.00 | 0.00 | 81 | 1015.2 |
| 20260507144502 | 6 | 360 | 8.0 | 17.7 | 0.00 | 0.00 | 0.00 | 79 | 1015.2 |
| 20260507143103 | 5 | 360 | 8.0 | 17.7 | 0.00 | 0.00 | 0.00 | 81 | 1015.2 |
| 20260507141511 | 5 | 360 | 11.3 | 17.7 | 0.00 | 0.00 | 0.00 | 81 | 1015.0 |
| 20260507140125 | 5 | 360 | 11.3 | 19.3 | 0.00 | 0.00 | 0.00 | 81 | 1014.9 |
| 20260507134604 | 5 | 360 | 8.0 | 17.7 | 0.00 | 0.00 | 0.00 | 80 | 1014.9 |
| 20260507133012 | 5 | 360 | 11.3 | 16.1 | 0.00 | 0.00 | 0.00 | 79 | 1014.9 |
| 20260507131513 | 5 | 360 | 4.8 | 17.7 | 0.00 | 0.00 | 0.00 | 81 | 1014.9 |
| 20260507130012 | 5 | 360 | 8.0 | 16.1 | 0.00 | 0.00 | 0.00 | 81 | 1015.2 |
| 20260507124616 | 5 | 360 | 11.3 | 20.9 | 0.00 | 0.00 | 0.00 | 83 | 1015.0 |
| 20260507123110 | 5 | 360 | 14.5 | 22.5 | 0.00 | 0.00 | 0.00 | 83 | 1015.0 |
| 20260507121513 | 5 | 360 | 6.4 | 16.1 | 0.00 | 0.00 | 0.00 | 85 | 1015.1 |
| 20260507114501 | 4 | 360 | 8.0 | 17.7 | 0.00 | 0.00 | 0.00 | 85 | 1015.1 |
| 20260507113103 | 5 | 360 | 8.0 | 16.1 | 0.00 | 0.00 | 0.00 | 84 | 1015.3 |
| 20260507111603 | 5 | 360 | 11.3 | 19.3 | 0.00 | 0.00 | 0.00 | 84 | 1015.1 |
| 20260507110016 | 4 | 360 | 11.3 | 22.5 | 0.00 | 0.00 | 0.00 | 84 | 1015.1 |
| 20260507104602 | 5 | 360 | 12.9 | 20.9 | 0.00 | 0.00 | 0.00 | 82 | 1015.2 |
| 20260507103002 | 5 | 360 | 14.5 | 19.3 | 0.00 | 0.00 | 0.00 | 85 | 1015.4 |